Time;durP1;ratioP1;P1;durP2;ratioP2;P2;SDS_P1;SDS_P2;PMS_P1;PMS_P2;Temp;Humidity;BMP_temperature;BMP_pressure;BME280_temperature;BME280_humidity;BME280_pressure;Samples;Min_cycle;Max_cycle;Signal;HPM_P1;HPM_P2
2022/12/09 00:01:41;;;;;;;;;;;18.70;63.70;;;;;;4514354;31;20560;-74
2022/12/09 00:04:07;;;;;;;;;;;18.70;63.80;;;;;;4514304;31;20027;-75
2022/12/09 00:06:33;;;;;;;;;;;18.70;64.70;;;;;;4514057;31;20029;-74
2022/12/09 00:08:59;;;;;;;;;;;18.70;63.90;;;;;;4514570;31;20035;-75
2022/12/09 00:11:25;;;;;;;;;;;18.60;63.90;;;;;;4511953;31;20021;-75
2022/12/09 00:13:52;;;;;;;;;;;18.60;63.90;;;;;;4514564;31;20060;-74
2022/12/09 00:16:17;;;;;;;;;;;18.60;64.00;;;;;;4512826;31;20033;-74
2022/12/09 00:18:43;;;;;;;;;;;18.60;64.00;;;;;;4514253;31;20071;-75
2022/12/09 00:21:28;;;;;;;;;;;18.60;64.00;;;;;;4514019;31;20031;-74
2022/12/09 00:23:55;;;;;;;;;;;18.60;64.10;;;;;;4503483;31;20025;-74
2022/12/09 00:26:22;;;;;;;;;;;18.50;64.10;;;;;;4514260;31;20150;-74
2022/12/09 00:28:48;;;;;;;;;;;18.50;64.10;;;;;;4513553;31;20033;-74
2022/12/09 00:31:15;;;;;;;;;;;18.50;64.10;;;;;;4512675;31;20039;-74
2022/12/09 00:33:41;;;;;;;;;;;18.50;64.10;;;;;;4513659;31;20032;-74
2022/12/09 00:36:08;;;;;;;;;;;18.40;64.10;;;;;;4513872;31;20032;-74
2022/12/09 00:38:42;;;;;;;;;;;18.40;64.10;;;;;;4513998;31;20064;-74
2022/12/09 00:41:08;;;;;;;;;;;18.40;64.10;;;;;;4513325;31;20193;-74
2022/12/09 00:43:34;;;;;;;;;;;18.40;64.10;;;;;;4499924;31;20032;-74
2022/12/09 00:46:00;;;;;;;;;;;18.40;64.10;;;;;;4512446;31;20039;-75
2022/12/09 00:48:29;;;;;;;;;;;18.40;64.10;;;;;;4513897;31;20032;-74
2022/12/09 00:50:55;;;;;;;;;;;18.30;64.40;;;;;;4513235;31;20073;-75
2022/12/09 00:53:21;;;;;;;;;;;18.30;64.10;;;;;;4512621;31;20029;-74
2022/12/09 00:55:47;;;;;;;;;;;18.30;64.10;;;;;;4512760;31;20028;-74
2022/12/09 00:58:13;;;;;;;;;;;18.30;64.10;;;;;;4513488;31;20046;-74
2022/12/09 01:00:39;;;;;;;;;;;18.20;64.10;;;;;;4513949;31;20021;-74
2022/12/09 01:03:05;;;;;;;;;;;18.20;65.00;;;;;;4512213;31;20025;-74
2022/12/09 01:05:33;;;;;;;;;;;18.20;64.10;;;;;;4513786;31;20055;-74
2022/12/09 01:07:59;;;;;;;;;;;18.20;64.10;;;;;;4512901;31;20048;-74
2022/12/09 01:10:25;;;;;;;;;;;18.20;64.10;;;;;;4513433;31;20035;-74
2022/12/09 01:12:51;;;;;;;;;;;18.20;64.10;;;;;;4513321;31;20025;-74
2022/12/09 01:15:16;;;;;;;;;;;18.20;64.10;;;;;;4513432;31;20034;-74
2022/12/09 01:17:42;;;;;;;;;;;18.10;64.00;;;;;;4512747;31;20149;-74
2022/12/09 01:20:08;;;;;;;;;;;18.10;64.00;;;;;;4512110;31;20036;-74
2022/12/09 01:22:35;;;;;;;;;;;18.10;64.00;;;;;;4512984;31;20035;-74
2022/12/09 01:25:02;;;;;;;;;;;18.10;64.10;;;;;;4516406;31;20097;-74
2022/12/09 01:27:29;;;;;;;;;;;18.10;64.10;;;;;;4516720;31;20040;-74
2022/12/09 01:29:59;;;;;;;;;;;18.00;63.90;;;;;;4516624;31;20030;-74
2022/12/09 01:32:24;;;;;;;;;;;18.00;64.00;;;;;;4515324;31;20028;-74
2022/12/09 01:34:50;;;;;;;;;;;18.00;64.00;;;;;;4515824;31;20012;-74
2022/12/09 01:37:16;;;;;;;;;;;18.00;64.10;;;;;;4516213;31;20159;-74
2022/12/09 01:39:42;;;;;;;;;;;18.00;64.00;;;;;;4516488;31;20133;-74
2022/12/09 01:42:22;;;;;;;;;;;18.00;64.10;;;;;;4516033;31;20477;-74
2022/12/09 01:45:08;;;;;;;;;;;18.00;64.10;;;;;;4506545;31;20044;-74
2022/12/09 01:47:33;;;;;;;;;;;17.90;64.00;;;;;;4516596;31;20046;-74
2022/12/09 01:49:59;;;;;;;;;;;17.90;64.00;;;;;;4515006;31;20025;-74
2022/12/09 01:52:25;;;;;;;;;;;17.90;64.00;;;;;;4515301;31;20067;-70
2022/12/09 01:54:51;;;;;;;;;;;17.90;64.00;;;;;;4515894;31;20025;-74
2022/12/09 01:57:17;;;;;;;;;;;17.80;63.90;;;;;;4515339;31;20045;-74
2022/12/09 01:59:43;;;;;;;;;;;17.80;63.90;;;;;;4515963;31;20029;-74
2022/12/09 02:02:12;;;;;;;;;;;17.80;63.90;;;;;;4516155;31;20029;-74
2022/12/09 02:04:39;;;;;;;;;;;17.80;63.90;;;;;;4513737;31;20542;-74
2022/12/09 02:07:08;;;;;;;;;;;17.80;63.90;;;;;;4514068;31;20366;-73
2022/12/09 02:09:34;;;;;;;;;;;17.80;63.90;;;;;;4511448;31;20091;-74
2022/12/09 02:12:01;;;;;;;;;;;17.80;63.90;;;;;;4502159;31;20155;-74
2022/12/09 02:14:34;;;;;;;;;;;17.70;63.90;;;;;;4508981;31;20031;-74
2022/12/09 02:17:18;;;;;;;;;;;17.70;63.80;;;;;;4499920;31;20049;-74
2022/12/09 02:19:52;;;;;;;;;;;17.70;63.80;;;;;;4500026;31;20017;-74
2022/12/09 02:22:30;;;;;;;;;;;17.70;63.90;;;;;;4511404;31;20028;-74
2022/12/09 02:25:15;;;;;;;;;;;17.70;63.90;;;;;;4499810;31;20528;-74
2022/12/09 02:28:07;;;;;;;;;;;17.70;63.80;;;;;;4499870;31;20041;-74
2022/12/09 02:30:50;;;;;;;;;;;17.70;63.80;;;;;;4500079;31;20029;-74
2022/12/09 02:33:22;;;;;;;;;;;17.70;63.70;;;;;;4499641;31;20155;-74
2022/12/09 02:36:00;;;;;;;;;;;17.70;63.60;;;;;;4499233;31;20036;-74
2022/12/09 02:38:27;;;;;;;;;;;17.80;63.60;;;;;;4507371;31;20028;-74
2022/12/09 02:41:04;;;;;;;;;;;17.80;63.60;;;;;;4502415;31;20611;-74
2022/12/09 02:43:32;;;;;;;;;;;17.80;63.50;;;;;;4500025;31;20110;-74
2022/12/09 02:46:01;;;;;;;;;;;17.80;63.40;;;;;;4499406;31;20080;-74
2022/12/09 02:48:42;;;;;;;;;;;17.80;63.40;;;;;;4499827;31;20029;-74
2022/12/09 02:51:11;;;;;;;;;;;17.80;63.30;;;;;;4499177;31;20056;-74
2022/12/09 02:53:37;;;;;;;;;;;17.80;63.30;;;;;;4498244;31;20029;-74
2022/12/09 02:56:04;;;;;;;;;;;17.80;63.30;;;;;;4499685;31;20740;-74
2022/12/09 02:58:30;;;;;;;;;;;17.80;63.30;;;;;;4499288;31;20159;-73
2022/12/09 03:00:56;;;;;;;;;;;17.80;63.20;;;;;;4499679;31;20035;-74
2022/12/09 03:03:22;;;;;;;;;;;17.80;63.20;;;;;;4499040;31;20082;-74
2022/12/09 03:05:50;;;;;;;;;;;17.80;63.10;;;;;;4498424;31;20036;-73
2022/12/09 03:08:35;;;;;;;;;;;17.80;63.10;;;;;;4499230;31;20114;-74
2022/12/09 03:11:08;;;;;;;;;;;17.80;63.00;;;;;;4497688;31;20044;-74
2022/12/09 03:13:37;;;;;;;;;;;17.80;62.90;;;;;;4509471;31;20035;-74
2022/12/09 03:16:09;;;;;;;;;;;17.80;62.90;;;;;;4499106;31;20041;-74
2022/12/09 03:18:37;;;;;;;;;;;17.80;62.80;;;;;;4499275;31;20591;-74
2022/12/09 03:21:03;;;;;;;;;;;17.80;62.90;;;;;;4499026;31;20086;-74
2022/12/09 03:23:30;;;;;;;;;;;17.80;62.60;;;;;;4499066;31;20094;-74
2022/12/09 03:25:57;;;;;;;;;;;17.80;62.70;;;;;;4499126;31;20033;-74
2022/12/09 03:28:26;;;;;;;;;;;17.80;62.60;;;;;;4497685;31;20041;-74
2022/12/09 03:30:53;;;;;;;;;;;17.80;62.60;;;;;;4499177;31;20265;-73
2022/12/09 03:33:20;;;;;;;;;;;17.80;62.50;;;;;;4498467;31;20039;-74
2022/12/09 03:35:51;;;;;;;;;;;17.80;62.50;;;;;;4498919;31;20033;-74
2022/12/09 03:38:19;;;;;;;;;;;17.80;62.50;;;;;;4498752;31;20049;-74
2022/12/09 03:40:48;;;;;;;;;;;17.80;62.40;;;;;;4497322;31;20029;-74
2022/12/09 03:43:21;;;;;;;;;;;17.80;62.40;;;;;;4499038;31;20076;-74
2022/12/09 03:45:47;;;;;;;;;;;17.80;62.50;;;;;;4498515;31;20453;-74
2022/12/09 03:48:14;;;;;;;;;;;17.80;62.40;;;;;;4498911;31;20181;-73
2022/12/09 03:50:59;;;;;;;;;;;17.80;62.40;;;;;;4498230;31;20155;-74
2022/12/09 03:53:30;;;;;;;;;;;17.80;62.40;;;;;;4492248;31;20090;-73
2022/12/09 03:56:16;;;;;;;;;;;17.80;62.30;;;;;;4501455;31;20450;-74
2022/12/09 03:58:43;;;;;;;;;;;17.80;62.30;;;;;;4498028;31;20028;-74
2022/12/09 04:01:09;;;;;;;;;;;17.80;62.20;;;;;;4501291;31;20113;-74
2022/12/09 04:03:36;;;;;;;;;;;17.80;62.30;;;;;;4506495;31;20434;-74
2022/12/09 04:06:02;;;;;;;;;;;17.80;62.30;;;;;;4498367;31;20166;-74
2022/12/09 04:08:31;;;;;;;;;;;17.80;62.20;;;;;;4497447;31;20094;-74
2022/12/09 04:10:56;;;;;;;;;;;17.80;62.30;;;;;;4497835;31;20035;-74
2022/12/09 04:13:22;;;;;;;;;;;17.80;62.30;;;;;;4509688;31;20032;-74
2022/12/09 04:15:48;;;;;;;;;;;17.80;62.20;;;;;;4496975;31;20025;-74
2022/12/09 04:18:14;;;;;;;;;;;17.80;62.30;;;;;;4497258;31;20148;-73
2022/12/09 04:20:40;;;;;;;;;;;17.80;62.30;;;;;;4497852;31;20033;-73
2022/12/09 04:23:06;;;;;;;;;;;17.70;62.20;;;;;;4497392;31;20654;-74
2022/12/09 04:25:31;;;;;;;;;;;17.80;62.30;;;;;;4496876;31;20025;-74
2022/12/09 04:27:57;;;;;;;;;;;17.70;62.20;;;;;;4497007;31;20013;-74
2022/12/09 04:30:23;;;;;;;;;;;17.70;62.10;;;;;;4500084;31;20444;-74
2022/12/09 04:32:52;;;;;;;;;;;17.70;62.10;;;;;;4507155;31;20033;-74
2022/12/09 04:35:17;;;;;;;;;;;17.70;62.20;;;;;;4498206;31;20017;-74
2022/12/09 04:37:57;;;;;;;;;;;17.70;62.10;;;;;;4496803;31;20085;-74
2022/12/09 04:40:23;;;;;;;;;;;17.70;62.10;;;;;;4496682;31;20029;-74
2022/12/09 04:42:49;;;;;;;;;;;17.70;62.00;;;;;;4498075;31;20166;-74
2022/12/09 04:45:14;;;;;;;;;;;17.70;62.10;;;;;;4497787;31;20175;-74
2022/12/09 04:47:40;;;;;;;;;;;17.70;62.00;;;;;;4496988;31;20024;-74
2022/12/09 04:50:07;;;;;;;;;;;17.70;62.00;;;;;;4497782;31;20033;-74
2022/12/09 04:52:33;;;;;;;;;;;17.70;61.90;;;;;;4497632;31;20040;-74
2022/12/09 04:55:03;;;;;;;;;;;17.70;62.00;;;;;;4496501;31;20044;-74
2022/12/09 04:57:28;;;;;;;;;;;17.70;62.00;;;;;;4494431;31;20021;-74
2022/12/09 04:59:54;;;;;;;;;;;17.60;61.90;;;;;;4496763;31;20482;-73
2022/12/09 05:02:20;;;;;;;;;;;17.70;61.90;;;;;;4496614;31;20032;-74
2022/12/09 05:04:46;;;;;;;;;;;17.70;61.90;;;;;;4496978;31;20036;-74
2022/12/09 05:07:12;;;;;;;;;;;17.60;61.80;;;;;;4497622;31;20029;-74
2022/12/09 05:09:38;;;;;;;;;;;17.60;61.80;;;;;;4497702;31;20033;-74
2022/12/09 05:12:04;;;;;;;;;;;17.60;61.80;;;;;;4501089;31;20082;-74
2022/12/09 05:14:30;;;;;;;;;;;17.60;61.80;;;;;;4503262;31;20033;-74
2022/12/09 05:16:56;;;;;;;;;;;17.60;61.70;;;;;;4497489;31;20110;-74
2022/12/09 05:19:22;;;;;;;;;;;17.60;61.70;;;;;;4497636;31;20033;-74
2022/12/09 05:21:47;;;;;;;;;;;17.60;61.70;;;;;;4496752;31;20040;-74
2022/12/09 05:24:13;;;;;;;;;;;17.60;61.70;;;;;;4497379;31;20029;-74
2022/12/09 05:26:39;;;;;;;;;;;17.60;61.70;;;;;;4497721;31;20377;-74
2022/12/09 05:29:05;;;;;;;;;;;17.60;61.80;;;;;;4497185;31;20033;-74
2022/12/09 05:31:31;;;;;;;;;;;17.50;61.60;;;;;;4496456;32;20017;-74
2022/12/09 05:33:57;;;;;;;;;;;17.50;61.60;;;;;;4497296;31;20102;-74
2022/12/09 05:36:24;;;;;;;;;;;17.50;61.60;;;;;;4497242;31;20036;-74
2022/12/09 05:38:50;;;;;;;;;;;17.50;61.60;;;;;;4497463;31;20037;-74
2022/12/09 05:41:16;;;;;;;;;;;17.50;61.60;;;;;;4497314;31;20025;-74
2022/12/09 05:43:42;;;;;;;;;;;17.50;61.60;;;;;;4497906;31;20048;-74
2022/12/09 05:46:08;;;;;;;;;;;17.50;61.50;;;;;;4496992;31;20165;-74
2022/12/09 05:48:35;;;;;;;;;;;17.50;61.60;;;;;;4497390;31;20059;-73
2022/12/09 05:51:06;;;;;;;;;;;17.50;61.60;;;;;;4495924;32;20642;-74
2022/12/09 05:53:32;;;;;;;;;;;17.50;61.60;;;;;;4496084;32;20029;-73
2022/12/09 05:55:57;;;;;;;;;;;17.50;61.60;;;;;;4497523;31;20161;-74
2022/12/09 05:58:23;;;;;;;;;;;17.50;61.60;;;;;;4497221;31;20017;-74
2022/12/09 06:00:49;;;;;;;;;;;17.50;61.60;;;;;;4497562;31;20010;-73
2022/12/09 06:03:15;;;;;;;;;;;17.50;61.70;;;;;;4495890;31;20543;-74
2022/12/09 06:05:41;;;;;;;;;;;17.50;62.50;;;;;;4497613;31;20036;-74
2022/12/09 06:08:07;;;;;;;;;;;17.50;61.70;;;;;;4496966;31;20465;-74
2022/12/09 06:10:33;;;;;;;;;;;17.50;61.70;;;;;;4497363;31;20021;-74
2022/12/09 06:13:01;;;;;;;;;;;17.50;61.70;;;;;;4510673;31;20098;-74
2022/12/09 06:15:26;;;;;;;;;;;17.50;61.70;;;;;;4499032;31;20032;-74
2022/12/09 06:17:52;;;;;;;;;;;17.50;61.70;;;;;;4500283;31;20031;-74
2022/12/09 06:20:18;;;;;;;;;;;17.40;61.70;;;;;;4498715;31;20025;-74
2022/12/09 06:22:44;;;;;;;;;;;17.50;61.70;;;;;;4498967;31;20036;-74
2022/12/09 06:25:09;;;;;;;;;;;17.40;61.70;;;;;;4499708;31;20021;-74
2022/12/09 06:27:36;;;;;;;;;;;17.40;61.70;;;;;;4499930;31;20056;-74
2022/12/09 06:30:02;;;;;;;;;;;17.40;61.80;;;;;;4499977;31;20406;-74
2022/12/09 06:32:29;;;;;;;;;;;17.40;61.80;;;;;;4499532;31;20067;-74
2022/12/09 06:34:55;;;;;;;;;;;17.40;61.70;;;;;;4499093;31;20053;-74
2022/12/09 06:37:21;;;;;;;;;;;17.40;61.80;;;;;;4499650;31;20106;-74
2022/12/09 06:39:47;;;;;;;;;;;17.40;61.80;;;;;;4499959;31;20083;-73
2022/12/09 06:42:12;;;;;;;;;;;17.40;61.80;;;;;;4499197;31;20033;-74
2022/12/09 06:44:39;;;;;;;;;;;17.40;61.80;;;;;;4499724;31;20033;-74
2022/12/09 06:47:05;;;;;;;;;;;17.40;61.70;;;;;;4499695;31;20026;-74
2022/12/09 06:49:31;;;;;;;;;;;17.40;61.80;;;;;;4499452;31;20039;-74
2022/12/09 06:51:58;;;;;;;;;;;17.40;61.80;;;;;;4499840;31;20375;-74
2022/12/09 06:54:31;;;;;;;;;;;17.40;61.80;;;;;;4498170;31;20036;-73
2022/12/09 06:56:57;;;;;;;;;;;17.30;61.80;;;;;;4499391;31;20021;-73
2022/12/09 06:59:26;;;;;;;;;;;17.40;61.80;;;;;;4499225;31;20037;-74
2022/12/09 07:01:52;;;;;;;;;;;17.40;61.80;;;;;;4499453;31;20079;-74
2022/12/09 07:04:18;;;;;;;;;;;17.40;61.90;;;;;;4499442;31;20025;-74
2022/12/09 07:06:44;;;;;;;;;;;17.40;61.80;;;;;;4499251;31;20144;-74
2022/12/09 07:09:11;;;;;;;;;;;17.40;61.80;;;;;;4499513;31;20025;-73
2022/12/09 07:11:37;;;;;;;;;;;17.40;61.80;;;;;;4498886;31;20083;-74
2022/12/09 07:14:03;;;;;;;;;;;17.40;61.70;;;;;;4509242;31;20147;-74
2022/12/09 07:16:29;;;;;;;;;;;17.40;61.80;;;;;;4497889;31;20072;-74
2022/12/09 07:18:55;;;;;;;;;;;17.40;61.80;;;;;;4498014;31;20036;-74
2022/12/09 07:21:22;;;;;;;;;;;17.30;61.70;;;;;;4499019;31;20402;-74
2022/12/09 07:23:47;;;;;;;;;;;17.30;61.70;;;;;;4498973;31;20485;-74
2022/12/09 07:26:15;;;;;;;;;;;17.30;61.70;;;;;;4499428;31;20104;-73
2022/12/09 07:28:41;;;;;;;;;;;17.30;61.70;;;;;;4498845;31;20040;-73
2022/12/09 07:31:21;;;;;;;;;;;17.30;61.70;;;;;;4497947;31;20063;-73
2022/12/09 07:33:47;;;;;;;;;;;17.30;61.60;;;;;;4497595;31;20075;-74
2022/12/09 07:36:34;;;;;;;;;;;17.30;61.60;;;;;;4486946;31;20025;-74
2022/12/09 07:39:20;;;;;;;;;;;17.30;61.70;;;;;;4487102;31;20044;-73
2022/12/09 07:42:06;;;;;;;;;;;17.30;61.60;;;;;;4497330;31;20043;-74
2022/12/09 07:44:31;;;;;;;;;;;17.30;61.60;;;;;;4498834;31;20025;-74
2022/12/09 07:46:57;;;;;;;;;;;17.30;61.70;;;;;;4498642;31;20024;-74
2022/12/09 07:49:23;;;;;;;;;;;17.30;61.70;;;;;;4497325;31;20028;-74
2022/12/09 07:51:55;;;;;;;;;;;17.30;61.70;;;;;;4497756;31;20114;-74
2022/12/09 07:54:22;;;;;;;;;;;17.30;61.70;;;;;;4498116;31;20021;-74
2022/12/09 07:56:47;;;;;;;;;;;17.30;61.80;;;;;;4497743;31;20126;-71
2022/12/09 07:59:15;;;;;;;;;;;17.20;61.80;;;;;;4498039;31;20039;-74
2022/12/09 08:01:41;;;;;;;;;;;17.20;62.50;;;;;;4497503;31;20025;-74
2022/12/09 08:04:06;;;;;;;;;;;17.20;62.90;;;;;;4508483;31;20040;-74
2022/12/09 08:06:36;;;;;;;;;;;17.20;63.10;;;;;;4509244;31;20076;-74
2022/12/09 08:09:04;;;;;;;;;;;17.30;63.30;;;;;;4497612;31;20070;-75
2022/12/09 08:11:37;;;;;;;;;;;17.30;63.50;;;;;;4511874;31;20037;-73
2022/12/09 08:14:06;;;;;;;;;;;17.30;63.50;;;;;;4507889;31;20032;-73
2022/12/09 08:16:33;;;;;;;;;;;17.30;63.70;;;;;;4498070;31;20017;-73
2022/12/09 08:19:01;;;;;;;;;;;17.30;63.80;;;;;;4497152;31;20492;-74
2022/12/09 08:21:28;;;;;;;;;;;17.30;63.50;;;;;;4498354;31;20021;-74
2022/12/09 08:23:55;;;;;;;;;;;17.40;63.40;;;;;;4496787;31;20032;-72
2022/12/09 08:26:27;;;;;;;;;;;17.50;63.90;;;;;;4498451;31;20151;-73
2022/12/09 08:28:52;;;;;;;;;;;17.60;62.80;;;;;;4497814;31;20083;-73
2022/12/09 08:31:20;;;;;;;;;;;17.70;62.60;;;;;;4498163;31;20102;-73
2022/12/09 08:33:46;;;;;;;;;;;17.80;62.30;;;;;;4497332;31;20048;-73
2022/12/09 08:36:13;;;;;;;;;;;18.00;62.00;;;;;;4497099;31;20041;-74
2022/12/09 08:38:39;;;;;;;;;;;18.10;61.70;;;;;;4498141;31;20040;-74
2022/12/09 08:41:09;;;;;;;;;;;18.30;61.40;;;;;;4497574;31;20086;-73
2022/12/09 08:43:34;;;;;;;;;;;18.40;61.20;;;;;;4498209;31;20083;-72
2022/12/09 08:46:00;;;;;;;;;;;18.50;60.80;;;;;;4496527;31;20001;-73
2022/12/09 08:48:26;;;;;;;;;;;18.70;60.50;;;;;;4496762;31;20115;-73
2022/12/09 08:50:52;;;;;;;;;;;18.80;60.30;;;;;;4497579;31;20045;-74
2022/12/09 08:53:18;;;;;;;;;;;18.90;60.00;;;;;;4497700;31;20024;-72
2022/12/09 08:55:45;;;;;;;;;;;19.00;59.90;;;;;;4497886;31;20413;-74
2022/12/09 08:58:11;;;;;;;;;;;19.10;59.60;;;;;;4496580;31;20033;-74
2022/12/09 09:00:39;;;;;;;;;;;19.20;59.40;;;;;;4496798;31;20044;-74
2022/12/09 09:03:06;;;;;;;;;;;19.30;59.20;;;;;;4497327;31;20186;-74
2022/12/09 09:05:31;;;;;;;;;;;19.30;59.00;;;;;;4497982;31;20356;-74
2022/12/09 09:08:01;;;;;;;;;;;19.30;58.90;;;;;;4497298;31;20033;-74
2022/12/09 09:10:28;;;;;;;;;;;19.30;58.90;;;;;;4498173;31;20023;-75
2022/12/09 09:12:54;;;;;;;;;;;19.30;58.90;;;;;;4510609;31;20021;-75
2022/12/09 09:15:20;;;;;;;;;;;19.30;58.80;;;;;;4498813;31;20043;-74
2022/12/09 09:17:46;;;;;;;;;;;19.40;58.80;;;;;;4497938;31;20043;-74
2022/12/09 09:20:32;;;;;;;;;;;19.40;58.70;;;;;;4485446;31;20044;-74
2022/12/09 09:22:57;;;;;;;;;;;19.40;58.70;;;;;;4497753;31;20161;-75
2022/12/09 09:25:23;;;;;;;;;;;19.50;58.70;;;;;;4496497;31;20021;-74
2022/12/09 09:27:49;;;;;;;;;;;19.50;58.70;;;;;;4497743;31;20638;-74
2022/12/09 09:30:15;;;;;;;;;;;19.50;58.80;;;;;;4497828;31;20073;-74
2022/12/09 09:32:43;;;;;;;;;;;19.50;58.80;;;;;;4497540;31;20094;-74
2022/12/09 09:35:10;;;;;;;;;;;19.50;58.80;;;;;;4496889;31;20163;-74
2022/12/09 09:37:36;;;;;;;;;;;19.50;59.00;;;;;;4497323;31;20091;-75
2022/12/09 09:40:02;;;;;;;;;;;19.50;59.20;;;;;;4497745;31;20210;-83
2022/12/09 09:42:32;;;;;;;;;;;19.50;59.40;;;;;;4496256;31;20029;-78
2022/12/09 09:45:06;;;;;;;;;;;19.40;59.60;;;;;;4499808;31;20037;-78
2022/12/09 09:47:35;;;;;;;;;;;19.40;59.70;;;;;;4500924;31;20082;-77
2022/12/09 09:50:03;;;;;;;;;;;19.40;59.90;;;;;;4507284;31;20032;-78
2022/12/09 09:52:29;;;;;;;;;;;19.40;60.00;;;;;;4513805;31;20029;-78
2022/12/09 09:54:56;;;;;;;;;;;19.50;60.00;;;;;;4499165;31;20091;-75
2022/12/09 09:57:26;;;;;;;;;;;19.50;60.00;;;;;;4500494;31;20038;-76
2022/12/09 10:00:14;;;;;;;;;;;19.50;60.00;;;;;;4500829;31;20062;-76
2022/12/09 10:02:52;;;;;;;;;;;19.50;60.00;;;;;;4499204;31;20072;-77
2022/12/09 10:05:32;;;;;;;;;;;19.50;60.00;;;;;;4500597;31;20069;-80
2022/12/09 10:08:01;;;;;;;;;;;19.50;60.00;;;;;;4500086;31;20043;-75
2022/12/09 10:10:30;;;;;;;;;;;19.50;60.10;;;;;;4500028;31;20043;-74
2022/12/09 10:13:14;;;;;;;;;;;19.50;60.20;;;;;;4510359;31;20088;-75
2022/12/09 10:15:43;;;;;;;;;;;19.50;60.20;;;;;;4500180;31;20064;-75
2022/12/09 10:18:18;;;;;;;;;;;19.50;60.30;;;;;;4500257;31;20402;-78
2022/12/09 10:20:44;;;;;;;;;;;19.50;60.40;;;;;;4505449;31;20021;-79
2022/12/09 10:23:12;;;;;;;;;;;19.50;60.50;;;;;;4505877;31;20049;-75
2022/12/09 10:25:43;;;;;;;;;;;19.50;60.70;;;;;;4500029;31;20045;-75
2022/12/09 10:28:20;;;;;;;;;;;19.50;60.70;;;;;;4498899;31;20151;-74
2022/12/09 10:30:47;;;;;;;;;;;19.50;60.70;;;;;;4500024;31;20041;-75
2022/12/09 10:33:14;;;;;;;;;;;19.50;60.70;;;;;;4499813;31;20182;-80
2022/12/09 10:35:40;;;;;;;;;;;19.50;60.60;;;;;;4498884;31;20045;-76
2022/12/09 10:38:08;;;;;;;;;;;19.50;60.60;;;;;;4498688;31;20059;-78
2022/12/09 10:40:35;;;;;;;;;;;19.60;60.60;;;;;;4498512;31;20092;-78
2022/12/09 10:43:36;;;;;;;;;;;19.60;60.50;;;;;;4499363;31;20041;-79
2022/12/09 10:46:04;;;;;;;;;;;19.60;60.60;;;;;;4499438;31;20040;-80
2022/12/09 10:48:30;;;;;;;;;;;19.60;60.60;;;;;;4500079;31;20037;-78
2022/12/09 10:50:56;;;;;;;;;;;19.60;60.50;;;;;;4498476;31;20512;-80
2022/12/09 10:53:22;;;;;;;;;;;19.60;60.50;;;;;;4507067;31;20049;-79
2022/12/09 10:55:50;;;;;;;;;;;19.60;60.50;;;;;;4501761;31;20017;-77
2022/12/09 10:58:18;;;;;;;;;;;19.60;60.50;;;;;;4498366;31;20029;-78
2022/12/09 11:00:56;;;;;;;;;;;19.70;60.50;;;;;;4500021;31;20029;-77
2022/12/09 11:03:28;;;;;;;;;;;19.70;60.60;;;;;;4507823;31;20029;-77
2022/12/09 11:05:55;;;;;;;;;;;19.70;60.60;;;;;;4498448;31;20095;-75
2022/12/09 11:08:22;;;;;;;;;;;19.60;60.60;;;;;;4498313;31;20102;-74
2022/12/09 11:10:49;;;;;;;;;;;19.60;60.60;;;;;;4500028;31;20035;-75
2022/12/09 11:13:16;;;;;;;;;;;19.60;60.50;;;;;;4515952;31;20037;-74
2022/12/09 11:15:49;;;;;;;;;;;19.60;60.50;;;;;;4508657;31;20037;-74
2022/12/09 11:18:17;;;;;;;;;;;19.60;60.40;;;;;;4498393;31;20175;-74
2022/12/09 11:20:52;;;;;;;;;;;19.70;60.40;;;;;;4497865;31;20040;-74
2022/12/09 11:23:18;;;;;;;;;;;19.60;60.30;;;;;;4498078;31;20060;-74
2022/12/09 11:25:53;;;;;;;;;;;19.70;60.30;;;;;;4499491;31;20055;-74
2022/12/09 11:28:25;;;;;;;;;;;19.70;60.10;;;;;;4498907;31;20072;-74
2022/12/09 11:31:16;;;;;;;;;;;19.70;60.10;;;;;;4498972;31;20037;-73
2022/12/09 11:33:59;;;;;;;;;;;19.70;60.00;;;;;;4497387;31;20138;-74
2022/12/09 11:36:50;;;;;;;;;;;19.70;59.80;;;;;;4487297;31;20021;-73
2022/12/09 11:39:36;;;;;;;;;;;19.80;59.90;;;;;;4498163;31;20025;-76
2022/12/09 11:42:23;;;;;;;;;;;19.70;59.80;;;;;;4497613;31;20522;-76
2022/12/09 11:45:17;;;;;;;;;;;19.70;59.80;;;;;;4496193;31;20037;-76
2022/12/09 11:48:14;;;;;;;;;;;19.80;59.70;;;;;;4507970;31;20167;-75
2022/12/09 11:51:00;;;;;;;;;;;19.80;59.70;;;;;;4486583;31;20037;-75
2022/12/09 11:53:46;;;;;;;;;;;19.80;59.60;;;;;;4496800;31;20081;-76
2022/12/09 11:56:33;;;;;;;;;;;19.90;59.70;;;;;;4497024;31;20043;-75
2022/12/09 11:59:15;;;;;;;;;;;19.90;59.70;;;;;;4497124;31;20029;-76
2022/12/09 12:01:42;;;;;;;;;;;19.90;59.70;;;;;;4498689;31;20040;-75
2022/12/09 12:04:09;;;;;;;;;;;19.90;59.70;;;;;;4497580;31;20041;-75
2022/12/09 12:06:44;;;;;;;;;;;19.90;59.70;;;;;;4497226;31;20102;-74
2022/12/09 12:09:15;;;;;;;;;;;19.90;59.80;;;;;;4498360;31;20064;-75
2022/12/09 12:12:01;;;;;;;;;;;19.90;59.80;;;;;;4499774;31;20039;-75
2022/12/09 12:14:28;;;;;;;;;;;19.90;59.90;;;;;;4505647;31;20043;-75
2022/12/09 12:17:06;;;;;;;;;;;19.90;59.90;;;;;;4498328;31;20086;-75
2022/12/09 12:19:40;;;;;;;;;;;19.90;60.70;;;;;;4497267;31;20081;-74
2022/12/09 12:22:18;;;;;;;;;;;19.90;59.80;;;;;;4498474;31;20151;-75
2022/12/09 12:24:50;;;;;;;;;;;19.90;59.90;;;;;;4498042;31;20043;-74
2022/12/09 12:27:19;;;;;;;;;;;19.90;59.90;;;;;;4498106;31;20038;-75
2022/12/09 12:30:11;;;;;;;;;;;19.90;59.90;;;;;;4498360;31;20029;-73
2022/12/09 12:32:46;;;;;;;;;;;19.90;59.90;;;;;;4497009;31;20482;-73
2022/12/09 12:35:44;;;;;;;;;;;19.90;59.90;;;;;;4498517;31;20171;-73
2022/12/09 12:38:10;;;;;;;;;;;20.00;59.90;;;;;;4462699;31;20033;-74
2022/12/09 12:40:39;;;;;;;;;;;20.00;59.90;;;;;;4509109;31;20114;-78
2022/12/09 12:46:23;;;;;;;;;;;20.00;60.10;;;;;;4463886;32;20043;-72
2022/12/09 12:48:49;;;;;;;;;;;20.00;60.20;;;;;;4490432;31;20029;-71
2022/12/09 12:51:34;;;;;;;;;;;20.00;60.30;;;;;;4497130;31;20039;-74
2022/12/09 12:53:59;;;;;;;;;;;20.00;60.30;;;;;;4496395;31;20081;-72
2022/12/09 12:56:29;;;;;;;;;;;20.00;60.50;;;;;;4497240;31;20162;-77
2022/12/09 12:58:55;;;;;;;;;;;20.00;60.60;;;;;;4497761;31;20040;-72
2022/12/09 13:01:29;;;;;;;;;;;20.00;60.70;;;;;;4497937;31;20025;-74
2022/12/09 13:04:01;;;;;;;;;;;20.00;60.70;;;;;;4496738;31;20029;-75
2022/12/09 13:06:46;;;;;;;;;;;20.00;60.80;;;;;;4496625;31;20072;-75
2022/12/09 13:09:38;;;;;;;;;;;20.00;60.80;;;;;;4511754;31;20048;-80
2022/12/09 13:12:04;;;;;;;;;;;20.00;60.80;;;;;;4491530;31;20093;-77
2022/12/09 13:14:38;;;;;;;;;;;20.00;60.90;;;;;;4512547;31;20025;-70
2022/12/09 13:17:06;;;;;;;;;;;20.00;60.90;;;;;;4512835;31;20033;-71
2022/12/09 13:19:35;;;;;;;;;;;20.00;60.80;;;;;;4514666;31;20058;-71
2022/12/09 13:22:04;;;;;;;;;;;20.00;60.70;;;;;;4515624;31;20456;-71
2022/12/09 13:24:39;;;;;;;;;;;20.00;60.60;;;;;;4516166;31;20040;-71
2022/12/09 13:27:10;;;;;;;;;;;20.00;60.50;;;;;;4516023;31;20083;-71
2022/12/09 13:30:05;;;;;;;;;;;19.90;60.50;;;;;;4516499;31;20190;-71
2022/12/09 13:32:43;;;;;;;;;;;20.00;60.50;;;;;;4515267;31;20048;-72
2022/12/09 13:35:16;;;;;;;;;;;20.00;60.50;;;;;;4515639;31;20029;-72
2022/12/09 13:37:42;;;;;;;;;;;20.00;60.40;;;;;;4505300;31;20060;-72
2022/12/09 13:40:16;;;;;;;;;;;20.00;60.40;;;;;;4516210;31;20024;-72
2022/12/09 13:42:51;;;;;;;;;;;20.00;60.30;;;;;;4515325;31;20029;-71
2022/12/09 13:45:23;;;;;;;;;;;20.00;60.30;;;;;;4515127;31;20029;-73
2022/12/09 13:47:53;;;;;;;;;;;20.00;60.30;;;;;;4514090;31;20040;-73
2022/12/09 13:50:38;;;;;;;;;;;20.00;60.20;;;;;;4514488;31;20043;-74
2022/12/09 13:53:19;;;;;;;;;;;20.00;60.20;;;;;;4514112;31;20082;-72
2022/12/09 13:55:54;;;;;;;;;;;20.00;60.20;;;;;;4514951;31;20032;-72
2022/12/09 13:58:28;;;;;;;;;;;20.00;60.20;;;;;;4515453;31;20028;-72
2022/12/09 14:00:58;;;;;;;;;;;20.00;60.10;;;;;;4514407;31;20048;-73
2022/12/09 14:03:32;;;;;;;;;;;20.00;60.10;;;;;;4513777;31;20087;-72
2022/12/09 14:06:00;;;;;;;;;;;20.00;60.90;;;;;;4512714;31;20052;-74
2022/12/09 14:08:32;;;;;;;;;;;20.00;60.00;;;;;;4511730;31;20032;-73
2022/12/09 14:11:17;;;;;;;;;;;20.00;59.90;;;;;;4511613;31;20162;-73
2022/12/09 14:13:43;;;;;;;;;;;20.00;59.90;;;;;;4511707;31;20025;-72
2022/12/09 14:16:13;;;;;;;;;;;20.00;60.00;;;;;;4500123;31;20040;-72
2022/12/09 14:18:39;;;;;;;;;;;20.00;60.00;;;;;;4500266;31;20155;-73
2022/12/09 14:21:17;;;;;;;;;;;20.00;59.90;;;;;;4499235;31;20010;-73
2022/12/09 14:24:01;;;;;;;;;;;20.00;60.00;;;;;;4502755;31;20158;-71
2022/12/09 14:26:36;;;;;;;;;;;20.00;60.10;;;;;;4515288;31;20039;-73
2022/12/09 14:29:03;;;;;;;;;;;20.00;60.10;;;;;;4513265;31;20146;-73
2022/12/09 14:31:44;;;;;;;;;;;20.00;60.10;;;;;;4511393;31;20075;-72
2022/12/09 14:34:26;;;;;;;;;;;20.00;60.10;;;;;;4510747;31;20039;-73
2022/12/09 14:37:41;;;;;;;;;;;20.00;60.00;;;;;;4513070;31;20043;-71